sensor_id;sensor_type;location;lat;lon;timestamp;P1;durP1;ratioP1;P2;durP2;ratioP2
2866;SDS011;1441;48.886;8.728;2024-01-27T00:01:39;1.90;;;0.93;;
2866;SDS011;1441;48.886;8.728;2024-01-27T00:04:04;3.83;;;1.00;;
2866;SDS011;1441;48.886;8.728;2024-01-27T00:06:30;3.17;;;1.40;;
2866;SDS011;1441;48.886;8.728;2024-01-27T00:08:55;9.03;;;0.93;;
2866;SDS011;1441;48.886;8.728;2024-01-27T00:11:21;4.33;;;1.30;;
2866;SDS011;1441;48.886;8.728;2024-01-27T00:13:49;2.70;;;1.60;;
2866;SDS011;1441;48.886;8.728;2024-01-27T00:16:15;3.13;;;1.00;;
2866;SDS011;1441;48.886;8.728;2024-01-27T00:18:40;3.80;;;1.40;;
2866;SDS011;1441;48.886;8.728;2024-01-27T00:21:06;3.77;;;1.60;;
2866;SDS011;1441;48.886;8.728;2024-01-27T00:23:32;3.13;;;1.40;;
2866;SDS011;1441;48.886;8.728;2024-01-27T00:25:57;2.83;;;1.50;;
2866;SDS011;1441;48.886;8.728;2024-01-27T00:28:23;4.33;;;1.43;;
2866;SDS011;1441;48.886;8.728;2024-01-27T00:30:49;2.40;;;1.10;;
2866;SDS011;1441;48.886;8.728;2024-01-27T00:33:15;7.47;;;1.90;;
2866;SDS011;1441;48.886;8.728;2024-01-27T00:35:41;2.80;;;1.40;;
2866;SDS011;1441;48.886;8.728;2024-01-27T00:38:06;3.13;;;0.90;;
2866;SDS011;1441;48.886;8.728;2024-01-27T00:40:32;1.93;;;1.20;;
2866;SDS011;1441;48.886;8.728;2024-01-27T00:42:57;1.07;;;0.97;;
2866;SDS011;1441;48.886;8.728;2024-01-27T00:45:23;3.07;;;1.20;;
2866;SDS011;1441;48.886;8.728;2024-01-27T00:47:49;3.60;;;1.13;;
2866;SDS011;1441;48.886;8.728;2024-01-27T00:50:15;7.40;;;1.30;;
2866;SDS011;1441;48.886;8.728;2024-01-27T00:52:41;3.67;;;1.20;;
2866;SDS011;1441;48.886;8.728;2024-01-27T00:55:07;6.93;;;1.90;;
2866;SDS011;1441;48.886;8.728;2024-01-27T00:57:32;2.77;;;1.40;;
2866;SDS011;1441;48.886;8.728;2024-01-27T00:59:58;2.60;;;0.80;;
2866;SDS011;1441;48.886;8.728;2024-01-27T01:02:23;2.50;;;1.27;;
2866;SDS011;1441;48.886;8.728;2024-01-27T01:04:49;5.70;;;1.50;;
2866;SDS011;1441;48.886;8.728;2024-01-27T01:07:15;2.93;;;1.10;;
2866;SDS011;1441;48.886;8.728;2024-01-27T01:09:41;2.00;;;1.10;;
2866;SDS011;1441;48.886;8.728;2024-01-27T01:12:06;2.10;;;1.00;;
2866;SDS011;1441;48.886;8.728;2024-01-27T01:14:32;6.90;;;1.80;;
2866;SDS011;1441;48.886;8.728;2024-01-27T01:16:57;7.20;;;1.07;;
2866;SDS011;1441;48.886;8.728;2024-01-27T01:19:23;1.33;;;1.03;;
2866;SDS011;1441;48.886;8.728;2024-01-27T01:21:49;2.90;;;1.20;;
2866;SDS011;1441;48.886;8.728;2024-01-27T01:24:14;4.03;;;1.13;;
2866;SDS011;1441;48.886;8.728;2024-01-27T01:26:40;3.73;;;1.10;;
2866;SDS011;1441;48.886;8.728;2024-01-27T01:29:05;3.43;;;0.87;;
2866;SDS011;1441;48.886;8.728;2024-01-27T01:31:31;5.30;;;1.00;;
2866;SDS011;1441;48.886;8.728;2024-01-27T01:33:57;2.93;;;0.83;;
2866;SDS011;1441;48.886;8.728;2024-01-27T01:36:23;1.90;;;1.00;;
2866;SDS011;1441;48.886;8.728;2024-01-27T01:38:48;2.23;;;1.20;;
2866;SDS011;1441;48.886;8.728;2024-01-27T01:41:14;2.97;;;1.10;;
2866;SDS011;1441;48.886;8.728;2024-01-27T01:43:39;3.03;;;0.80;;
2866;SDS011;1441;48.886;8.728;2024-01-27T01:46:05;5.10;;;1.40;;
2866;SDS011;1441;48.886;8.728;2024-01-27T01:48:31;1.50;;;0.77;;
2866;SDS011;1441;48.886;8.728;2024-01-27T01:50:57;6.87;;;0.93;;
2866;SDS011;1441;48.886;8.728;2024-01-27T01:53:24;4.73;;;0.80;;
2866;SDS011;1441;48.886;8.728;2024-01-27T01:55:50;3.07;;;1.10;;
2866;SDS011;1441;48.886;8.728;2024-01-27T01:58:17;2.97;;;1.00;;
2866;SDS011;1441;48.886;8.728;2024-01-27T02:00:43;4.30;;;1.10;;
2866;SDS011;1441;48.886;8.728;2024-01-27T02:03:12;2.80;;;1.10;;
2866;SDS011;1441;48.886;8.728;2024-01-27T02:05:38;3.40;;;1.00;;
2866;SDS011;1441;48.886;8.728;2024-01-27T02:08:04;5.60;;;1.13;;
2866;SDS011;1441;48.886;8.728;2024-01-27T02:10:30;7.43;;;1.00;;
2866;SDS011;1441;48.886;8.728;2024-01-27T02:13:01;2.93;;;0.80;;
2866;SDS011;1441;48.886;8.728;2024-01-27T02:15:28;1.77;;;1.07;;
2866;SDS011;1441;48.886;8.728;2024-01-27T02:17:53;6.73;;;1.17;;
2866;SDS011;1441;48.886;8.728;2024-01-27T02:20:19;2.40;;;1.17;;
2866;SDS011;1441;48.886;8.728;2024-01-27T02:22:44;3.10;;;1.17;;
2866;SDS011;1441;48.886;8.728;2024-01-27T02:25:10;2.93;;;0.93;;
2866;SDS011;1441;48.886;8.728;2024-01-27T02:27:35;1.70;;;1.00;;
2866;SDS011;1441;48.886;8.728;2024-01-27T02:30:01;5.07;;;1.20;;
2866;SDS011;1441;48.886;8.728;2024-01-27T02:32:26;1.00;;;1.00;;
2866;SDS011;1441;48.886;8.728;2024-01-27T02:34:52;5.87;;;0.83;;
2866;SDS011;1441;48.886;8.728;2024-01-27T02:37:18;4.83;;;0.90;;
2866;SDS011;1441;48.886;8.728;2024-01-27T02:39:44;1.13;;;1.00;;
2866;SDS011;1441;48.886;8.728;2024-01-27T02:42:10;1.30;;;1.10;;
2866;SDS011;1441;48.886;8.728;2024-01-27T02:44:35;3.47;;;1.27;;
2866;SDS011;1441;48.886;8.728;2024-01-27T02:47:01;2.80;;;0.87;;
2866;SDS011;1441;48.886;8.728;2024-01-27T02:49:26;2.20;;;2.10;;
2866;SDS011;1441;48.886;8.728;2024-01-27T02:51:55;3.17;;;1.67;;
2866;SDS011;1441;48.886;8.728;2024-01-27T02:54:20;6.70;;;1.27;;
2866;SDS011;1441;48.886;8.728;2024-01-27T02:56:46;5.73;;;1.57;;
2866;SDS011;1441;48.886;8.728;2024-01-27T02:59:11;2.47;;;0.90;;
2866;SDS011;1441;48.886;8.728;2024-01-27T03:01:37;3.77;;;1.13;;
2866;SDS011;1441;48.886;8.728;2024-01-27T03:04:03;6.20;;;1.90;;
2866;SDS011;1441;48.886;8.728;2024-01-27T03:06:28;3.43;;;1.03;;
2866;SDS011;1441;48.886;8.728;2024-01-27T03:08:54;7.10;;;1.30;;
2866;SDS011;1441;48.886;8.728;2024-01-27T03:11:19;9.80;;;1.13;;
2866;SDS011;1441;48.886;8.728;2024-01-27T03:13:45;5.30;;;1.40;;
2866;SDS011;1441;48.886;8.728;2024-01-27T03:16:11;2.10;;;1.30;;
2866;SDS011;1441;48.886;8.728;2024-01-27T03:18:36;2.90;;;1.20;;
2866;SDS011;1441;48.886;8.728;2024-01-27T03:21:02;1.03;;;0.90;;
2866;SDS011;1441;48.886;8.728;2024-01-27T03:23:28;6.97;;;1.23;;
2866;SDS011;1441;48.886;8.728;2024-01-27T03:25:54;3.47;;;1.83;;
2866;SDS011;1441;48.886;8.728;2024-01-27T03:28:19;5.93;;;1.87;;
2866;SDS011;1441;48.886;8.728;2024-01-27T03:30:45;2.63;;;1.37;;
2866;SDS011;1441;48.886;8.728;2024-01-27T03:33:11;2.53;;;1.10;;
2866;SDS011;1441;48.886;8.728;2024-01-27T03:35:37;8.10;;;1.77;;
2866;SDS011;1441;48.886;8.728;2024-01-27T03:38:05;1.27;;;1.00;;
2866;SDS011;1441;48.886;8.728;2024-01-27T03:40:31;4.07;;;1.20;;
2866;SDS011;1441;48.886;8.728;2024-01-27T03:42:56;2.60;;;1.73;;
2866;SDS011;1441;48.886;8.728;2024-01-27T03:45:22;5.33;;;1.60;;
2866;SDS011;1441;48.886;8.728;2024-01-27T03:47:47;4.27;;;1.40;;
2866;SDS011;1441;48.886;8.728;2024-01-27T03:50:13;7.60;;;1.40;;
2866;SDS011;1441;48.886;8.728;2024-01-27T03:52:38;2.33;;;1.43;;
2866;SDS011;1441;48.886;8.728;2024-01-27T03:55:04;3.83;;;2.07;;
2866;SDS011;1441;48.886;8.728;2024-01-27T03:57:30;3.87;;;1.53;;
2866;SDS011;1441;48.886;8.728;2024-01-27T03:59:56;6.47;;;1.53;;
2866;SDS011;1441;48.886;8.728;2024-01-27T04:02:21;1.90;;;1.30;;
2866;SDS011;1441;48.886;8.728;2024-01-27T04:04:47;3.10;;;1.07;;
2866;SDS011;1441;48.886;8.728;2024-01-27T04:07:13;3.93;;;1.67;;
2866;SDS011;1441;48.886;8.728;2024-01-27T04:09:38;7.47;;;2.20;;
2866;SDS011;1441;48.886;8.728;2024-01-27T04:12:04;7.60;;;1.80;;
2866;SDS011;1441;48.886;8.728;2024-01-27T04:14:30;3.40;;;1.37;;
2866;SDS011;1441;48.886;8.728;2024-01-27T04:16:55;5.87;;;1.60;;
2866;SDS011;1441;48.886;8.728;2024-01-27T04:19:21;4.17;;;2.10;;
2866;SDS011;1441;48.886;8.728;2024-01-27T04:21:46;4.43;;;1.37;;
2866;SDS011;1441;48.886;8.728;2024-01-27T04:24:12;4.30;;;1.67;;
2866;SDS011;1441;48.886;8.728;2024-01-27T04:26:37;6.60;;;1.63;;
2866;SDS011;1441;48.886;8.728;2024-01-27T04:29:03;10.77;;;1.20;;
2866;SDS011;1441;48.886;8.728;2024-01-27T04:31:28;5.90;;;1.97;;
2866;SDS011;1441;48.886;8.728;2024-01-27T04:33:56;4.83;;;1.00;;
2866;SDS011;1441;48.886;8.728;2024-01-27T04:36:28;7.13;;;1.27;;
2866;SDS011;1441;48.886;8.728;2024-01-27T04:38:54;4.83;;;0.90;;
2866;SDS011;1441;48.886;8.728;2024-01-27T04:41:20;2.80;;;1.13;;
2866;SDS011;1441;48.886;8.728;2024-01-27T04:43:45;5.10;;;1.20;;
2866;SDS011;1441;48.886;8.728;2024-01-27T04:46:11;2.30;;;1.10;;
2866;SDS011;1441;48.886;8.728;2024-01-27T04:48:36;7.73;;;1.20;;
2866;SDS011;1441;48.886;8.728;2024-01-27T04:51:02;9.10;;;1.80;;
2866;SDS011;1441;48.886;8.728;2024-01-27T04:53:28;3.03;;;1.20;;
2866;SDS011;1441;48.886;8.728;2024-01-27T04:55:53;5.10;;;1.43;;
2866;SDS011;1441;48.886;8.728;2024-01-27T04:58:19;4.00;;;1.57;;
2866;SDS011;1441;48.886;8.728;2024-01-27T05:00:44;2.13;;;1.20;;
2866;SDS011;1441;48.886;8.728;2024-01-27T05:03:10;4.20;;;1.60;;
2866;SDS011;1441;48.886;8.728;2024-01-27T05:05:40;6.03;;;1.80;;
2866;SDS011;1441;48.886;8.728;2024-01-27T05:08:07;5.67;;;1.90;;
2866;SDS011;1441;48.886;8.728;2024-01-27T05:10:32;1.90;;;1.60;;
2866;SDS011;1441;48.886;8.728;2024-01-27T05:12:58;3.13;;;2.30;;
2866;SDS011;1441;48.886;8.728;2024-01-27T05:15:24;2.10;;;1.90;;
2866;SDS011;1441;48.886;8.728;2024-01-27T05:17:50;10.83;;;1.83;;
2866;SDS011;1441;48.886;8.728;2024-01-27T05:20:16;1.93;;;1.63;;
2866;SDS011;1441;48.886;8.728;2024-01-27T05:22:42;4.70;;;1.67;;
2866;SDS011;1441;48.886;8.728;2024-01-27T05:25:09;7.80;;;2.23;;
2866;SDS011;1441;48.886;8.728;2024-01-27T05:27:36;3.17;;;2.10;;
2866;SDS011;1441;48.886;8.728;2024-01-27T05:30:02;2.20;;;1.50;;
2866;SDS011;1441;48.886;8.728;2024-01-27T05:32:28;6.40;;;2.33;;
2866;SDS011;1441;48.886;8.728;2024-01-27T05:34:53;1.93;;;1.03;;
2866;SDS011;1441;48.886;8.728;2024-01-27T05:37:19;3.77;;;1.50;;
2866;SDS011;1441;48.886;8.728;2024-01-27T05:39:44;2.00;;;1.50;;
2866;SDS011;1441;48.886;8.728;2024-01-27T05:42:10;3.63;;;2.00;;
2866;SDS011;1441;48.886;8.728;2024-01-27T05:44:35;5.33;;;1.90;;
2866;SDS011;1441;48.886;8.728;2024-01-27T05:47:02;4.83;;;1.70;;
2866;SDS011;1441;48.886;8.728;2024-01-27T05:49:28;5.87;;;1.73;;
2866;SDS011;1441;48.886;8.728;2024-01-27T05:51:53;6.30;;;1.90;;
2866;SDS011;1441;48.886;8.728;2024-01-27T05:54:19;2.93;;;1.33;;
2866;SDS011;1441;48.886;8.728;2024-01-27T05:56:44;1.97;;;1.50;;
2866;SDS011;1441;48.886;8.728;2024-01-27T05:59:10;3.23;;;1.40;;
2866;SDS011;1441;48.886;8.728;2024-01-27T06:01:35;4.30;;;1.80;;
2866;SDS011;1441;48.886;8.728;2024-01-27T06:04:02;3.23;;;1.60;;
2866;SDS011;1441;48.886;8.728;2024-01-27T06:06:27;3.17;;;1.40;;
2866;SDS011;1441;48.886;8.728;2024-01-27T06:08:53;1.70;;;1.60;;
2866;SDS011;1441;48.886;8.728;2024-01-27T06:11:25;4.87;;;1.53;;
2866;SDS011;1441;48.886;8.728;2024-01-27T06:13:51;2.40;;;1.30;;
2866;SDS011;1441;48.886;8.728;2024-01-27T06:16:20;5.43;;;1.67;;
2866;SDS011;1441;48.886;8.728;2024-01-27T06:18:45;2.57;;;1.27;;
2866;SDS011;1441;48.886;8.728;2024-01-27T06:21:11;12.33;;;6.93;;
2866;SDS011;1441;48.886;8.728;2024-01-27T06:23:37;9.93;;;7.60;;
2866;SDS011;1441;48.886;8.728;2024-01-27T06:26:09;4.83;;;2.50;;
2866;SDS011;1441;48.886;8.728;2024-01-27T06:28:34;4.87;;;2.47;;
2866;SDS011;1441;48.886;8.728;2024-01-27T06:31:01;2.73;;;1.80;;
2866;SDS011;1441;48.886;8.728;2024-01-27T06:33:28;5.03;;;1.57;;
2866;SDS011;1441;48.886;8.728;2024-01-27T06:35:53;5.03;;;1.57;;
2866;SDS011;1441;48.886;8.728;2024-01-27T06:38:19;3.50;;;1.07;;
2866;SDS011;1441;48.886;8.728;2024-01-27T06:40:44;5.37;;;1.80;;
2866;SDS011;1441;48.886;8.728;2024-01-27T06:43:12;2.13;;;1.50;;
2866;SDS011;1441;48.886;8.728;2024-01-27T06:45:39;2.43;;;1.57;;
2866;SDS011;1441;48.886;8.728;2024-01-27T06:48:05;3.23;;;1.10;;
2866;SDS011;1441;48.886;8.728;2024-01-27T06:50:32;2.00;;;1.47;;
2866;SDS011;1441;48.886;8.728;2024-01-27T06:52:57;4.03;;;1.80;;
2866;SDS011;1441;48.886;8.728;2024-01-27T06:55:24;9.47;;;1.97;;
2866;SDS011;1441;48.886;8.728;2024-01-27T06:57:49;7.67;;;1.87;;
2866;SDS011;1441;48.886;8.728;2024-01-27T07:00:15;5.13;;;2.00;;
2866;SDS011;1441;48.886;8.728;2024-01-27T07:02:41;4.10;;;2.00;;
2866;SDS011;1441;48.886;8.728;2024-01-27T07:05:07;4.40;;;2.30;;
2866;SDS011;1441;48.886;8.728;2024-01-27T07:07:34;4.40;;;2.43;;
2866;SDS011;1441;48.886;8.728;2024-01-27T07:10:00;3.67;;;1.93;;
2866;SDS011;1441;48.886;8.728;2024-01-27T07:12:26;5.40;;;2.70;;
2866;SDS011;1441;48.886;8.728;2024-01-27T07:14:51;2.90;;;2.67;;
2866;SDS011;1441;48.886;8.728;2024-01-27T07:17:17;9.03;;;2.33;;
2866;SDS011;1441;48.886;8.728;2024-01-27T07:19:43;2.00;;;1.63;;
2866;SDS011;1441;48.886;8.728;2024-01-27T07:22:09;3.57;;;1.17;;
2866;SDS011;1441;48.886;8.728;2024-01-27T07:24:35;6.53;;;1.20;;
2866;SDS011;1441;48.886;8.728;2024-01-27T07:27:00;7.57;;;2.77;;
2866;SDS011;1441;48.886;8.728;2024-01-27T07:29:26;5.30;;;2.47;;
2866;SDS011;1441;48.886;8.728;2024-01-27T07:31:53;9.17;;;2.40;;
2866;SDS011;1441;48.886;8.728;2024-01-27T07:34:18;4.27;;;1.97;;
2866;SDS011;1441;48.886;8.728;2024-01-27T07:36:44;7.13;;;3.00;;
2866;SDS011;1441;48.886;8.728;2024-01-27T07:39:10;4.00;;;1.80;;
2866;SDS011;1441;48.886;8.728;2024-01-27T07:41:35;2.73;;;2.03;;
2866;SDS011;1441;48.886;8.728;2024-01-27T07:44:11;6.70;;;2.33;;
2866;SDS011;1441;48.886;8.728;2024-01-27T07:46:38;8.13;;;2.30;;
2866;SDS011;1441;48.886;8.728;2024-01-27T07:49:05;2.60;;;2.00;;
2866;SDS011;1441;48.886;8.728;2024-01-27T07:51:34;4.10;;;2.10;;
2866;SDS011;1441;48.886;8.728;2024-01-27T07:54:02;3.47;;;2.07;;
2866;SDS011;1441;48.886;8.728;2024-01-27T07:56:27;3.47;;;2.00;;
2866;SDS011;1441;48.886;8.728;2024-01-27T07:58:53;3.53;;;2.47;;
2866;SDS011;1441;48.886;8.728;2024-01-27T08:01:19;2.97;;;2.00;;
2866;SDS011;1441;48.886;8.728;2024-01-27T08:03:45;3.33;;;2.60;;
2866;SDS011;1441;48.886;8.728;2024-01-27T08:06:22;3.97;;;2.10;;
2866;SDS011;1441;48.886;8.728;2024-01-27T08:08:52;2.07;;;1.93;;
2866;SDS011;1441;48.886;8.728;2024-01-27T08:11:19;3.10;;;2.33;;
2866;SDS011;1441;48.886;8.728;2024-01-27T08:13:44;4.40;;;2.60;;
2866;SDS011;1441;48.886;8.728;2024-01-27T08:16:10;4.57;;;3.00;;
2866;SDS011;1441;48.886;8.728;2024-01-27T08:18:38;15.63;;;7.27;;
2866;SDS011;1441;48.886;8.728;2024-01-27T08:21:04;21.57;;;11.33;;
2866;SDS011;1441;48.886;8.728;2024-01-27T08:23:30;19.87;;;11.00;;
2866;SDS011;1441;48.886;8.728;2024-01-27T08:25:55;18.07;;;9.43;;
2866;SDS011;1441;48.886;8.728;2024-01-27T08:28:21;17.03;;;7.50;;
2866;SDS011;1441;48.886;8.728;2024-01-27T08:30:47;14.17;;;5.50;;
2866;SDS011;1441;48.886;8.728;2024-01-27T08:33:12;17.50;;;8.67;;
2866;SDS011;1441;48.886;8.728;2024-01-27T08:35:38;16.10;;;7.33;;
2866;SDS011;1441;48.886;8.728;2024-01-27T08:38:03;14.70;;;6.17;;
2866;SDS011;1441;48.886;8.728;2024-01-27T08:40:31;12.00;;;5.77;;
2866;SDS011;1441;48.886;8.728;2024-01-27T08:42:56;8.47;;;4.90;;
2866;SDS011;1441;48.886;8.728;2024-01-27T08:45:22;9.13;;;3.20;;
2866;SDS011;1441;48.886;8.728;2024-01-27T08:47:48;9.30;;;3.17;;
2866;SDS011;1441;48.886;8.728;2024-01-27T08:50:13;5.43;;;2.60;;
2866;SDS011;1441;48.886;8.728;2024-01-27T08:52:39;6.10;;;2.57;;
2866;SDS011;1441;48.886;8.728;2024-01-27T08:55:05;6.50;;;2.67;;
2866;SDS011;1441;48.886;8.728;2024-01-27T08:57:31;4.43;;;2.80;;
2866;SDS011;1441;48.886;8.728;2024-01-27T08:59:56;6.20;;;2.40;;
2866;SDS011;1441;48.886;8.728;2024-01-27T09:02:22;6.47;;;2.30;;
2866;SDS011;1441;48.886;8.728;2024-01-27T09:04:48;6.70;;;2.77;;
2866;SDS011;1441;48.886;8.728;2024-01-27T09:07:13;8.83;;;2.10;;
2866;SDS011;1441;48.886;8.728;2024-01-27T09:09:39;5.87;;;2.30;;
2866;SDS011;1441;48.886;8.728;2024-01-27T09:12:05;7.97;;;2.30;;
2866;SDS011;1441;48.886;8.728;2024-01-27T09:14:31;2.77;;;2.57;;
2866;SDS011;1441;48.886;8.728;2024-01-27T09:16:58;2.93;;;1.93;;
2866;SDS011;1441;48.886;8.728;2024-01-27T09:19:27;2.17;;;1.97;;
2866;SDS011;1441;48.886;8.728;2024-01-27T09:21:52;2.90;;;2.17;;
2866;SDS011;1441;48.886;8.728;2024-01-27T09:24:18;3.80;;;3.20;;
2866;SDS011;1441;48.886;8.728;2024-01-27T09:26:43;5.73;;;2.30;;
2866;SDS011;1441;48.886;8.728;2024-01-27T09:29:09;4.77;;;2.17;;
2866;SDS011;1441;48.886;8.728;2024-01-27T09:31:35;7.30;;;2.50;;
2866;SDS011;1441;48.886;8.728;2024-01-27T09:34:00;6.13;;;2.60;;
2866;SDS011;1441;48.886;8.728;2024-01-27T09:36:26;5.10;;;2.63;;
2866;SDS011;1441;48.886;8.728;2024-01-27T09:38:53;5.47;;;2.60;;
2866;SDS011;1441;48.886;8.728;2024-01-27T09:41:19;3.40;;;2.20;;
2866;SDS011;1441;48.886;8.728;2024-01-27T09:43:46;10.33;;;2.97;;
2866;SDS011;1441;48.886;8.728;2024-01-27T09:46:13;5.77;;;3.63;;
2866;SDS011;1441;48.886;8.728;2024-01-27T09:48:40;8.80;;;2.93;;
2866;SDS011;1441;48.886;8.728;2024-01-27T09:51:07;6.43;;;3.13;;
2866;SDS011;1441;48.886;8.728;2024-01-27T09:53:34;6.07;;;3.53;;
2866;SDS011;1441;48.886;8.728;2024-01-27T09:56:00;8.97;;;3.80;;
2866;SDS011;1441;48.886;8.728;2024-01-27T09:58:28;6.17;;;3.20;;
2866;SDS011;1441;48.886;8.728;2024-01-27T10:00:55;3.77;;;2.57;;
2866;SDS011;1441;48.886;8.728;2024-01-27T10:03:25;13.17;;;3.10;;
2866;SDS011;1441;48.886;8.728;2024-01-27T10:05:52;5.73;;;2.53;;
2866;SDS011;1441;48.886;8.728;2024-01-27T10:08:20;4.07;;;3.00;;
2866;SDS011;1441;48.886;8.728;2024-01-27T10:10:46;10.23;;;2.97;;
2866;SDS011;1441;48.886;8.728;2024-01-27T10:13:13;7.67;;;3.00;;
2866;SDS011;1441;48.886;8.728;2024-01-27T10:15:42;6.73;;;3.23;;
2866;SDS011;1441;48.886;8.728;2024-01-27T10:18:08;3.53;;;2.87;;
2866;SDS011;1441;48.886;8.728;2024-01-27T10:20:38;4.80;;;2.57;;
2866;SDS011;1441;48.886;8.728;2024-01-27T10:23:11;7.90;;;2.80;;
2866;SDS011;1441;48.886;8.728;2024-01-27T10:25:37;6.10;;;2.70;;
2866;SDS011;1441;48.886;8.728;2024-01-27T10:28:04;6.10;;;3.10;;
2866;SDS011;1441;48.886;8.728;2024-01-27T10:30:31;7.67;;;4.20;;
2866;SDS011;1441;48.886;8.728;2024-01-27T10:32:57;11.90;;;2.70;;
2866;SDS011;1441;48.886;8.728;2024-01-27T10:35:23;8.60;;;1.80;;
2866;SDS011;1441;48.886;8.728;2024-01-27T10:37:51;7.10;;;1.60;;
2866;SDS011;1441;48.886;8.728;2024-01-27T10:40:18;5.77;;;1.80;;
2866;SDS011;1441;48.886;8.728;2024-01-27T10:42:44;5.13;;;1.60;;
2866;SDS011;1441;48.886;8.728;2024-01-27T10:45:10;4.20;;;2.00;;
2866;SDS011;1441;48.886;8.728;2024-01-27T10:47:37;4.40;;;1.87;;
2866;SDS011;1441;48.886;8.728;2024-01-27T10:50:03;5.30;;;2.00;;
2866;SDS011;1441;48.886;8.728;2024-01-27T10:52:34;2.83;;;1.40;;
2866;SDS011;1441;48.886;8.728;2024-01-27T10:55:06;7.90;;;2.17;;
2866;SDS011;1441;48.886;8.728;2024-01-27T10:57:34;5.47;;;1.70;;
2866;SDS011;1441;48.886;8.728;2024-01-27T11:00:02;4.40;;;2.13;;
2866;SDS011;1441;48.886;8.728;2024-01-27T11:02:34;3.03;;;1.50;;
2866;SDS011;1441;48.886;8.728;2024-01-27T11:05:02;3.03;;;1.40;;
2866;SDS011;1441;48.886;8.728;2024-01-27T11:07:30;3.03;;;1.50;;
2866;SDS011;1441;48.886;8.728;2024-01-27T11:09:57;12.30;;;1.80;;
2866;SDS011;1441;48.886;8.728;2024-01-27T11:12:22;3.60;;;1.50;;
2866;SDS011;1441;48.886;8.728;2024-01-27T11:14:49;2.93;;;1.47;;
2866;SDS011;1441;48.886;8.728;2024-01-27T11:17:16;4.30;;;1.40;;
2866;SDS011;1441;48.886;8.728;2024-01-27T11:19:42;6.57;;;1.53;;
2866;SDS011;1441;48.886;8.728;2024-01-27T11:22:22;2.30;;;1.03;;
2866;SDS011;1441;48.886;8.728;2024-01-27T11:24:53;2.67;;;0.90;;
2866;SDS011;1441;48.886;8.728;2024-01-27T11:27:37;3.43;;;1.50;;
2866;SDS011;1441;48.886;8.728;2024-01-27T11:30:10;3.70;;;1.10;;
2866;SDS011;1441;48.886;8.728;2024-01-27T11:33:00;3.43;;;1.00;;
2866;SDS011;1441;48.886;8.728;2024-01-27T11:35:26;3.73;;;1.47;;
2866;SDS011;1441;48.886;8.728;2024-01-27T11:37:53;2.97;;;0.80;;
2866;SDS011;1441;48.886;8.728;2024-01-27T11:40:19;4.27;;;1.10;;
2866;SDS011;1441;48.886;8.728;2024-01-27T11:42:57;3.20;;;1.27;;
2866;SDS011;1441;48.886;8.728;2024-01-27T11:45:23;4.27;;;1.47;;
2866;SDS011;1441;48.886;8.728;2024-01-27T11:47:49;2.00;;;0.80;;
2866;SDS011;1441;48.886;8.728;2024-01-27T11:50:19;2.47;;;1.23;;
2866;SDS011;1441;48.886;8.728;2024-01-27T11:52:45;1.53;;;1.00;;
2866;SDS011;1441;48.886;8.728;2024-01-27T11:55:11;6.47;;;1.50;;
2866;SDS011;1441;48.886;8.728;2024-01-27T11:57:37;3.53;;;0.90;;
2866;SDS011;1441;48.886;8.728;2024-01-27T12:00:02;6.70;;;1.13;;
2866;SDS011;1441;48.886;8.728;2024-01-27T12:02:29;4.97;;;1.20;;
2866;SDS011;1441;48.886;8.728;2024-01-27T12:04:54;4.40;;;1.23;;
2866;SDS011;1441;48.886;8.728;2024-01-27T12:07:20;4.03;;;0.97;;
2866;SDS011;1441;48.886;8.728;2024-01-27T12:09:48;2.87;;;1.00;;
2866;SDS011;1441;48.886;8.728;2024-01-27T12:12:15;5.80;;;1.03;;
2866;SDS011;1441;48.886;8.728;2024-01-27T12:14:42;3.70;;;1.23;;
2866;SDS011;1441;48.886;8.728;2024-01-27T12:17:11;6.00;;;1.10;;
2866;SDS011;1441;48.886;8.728;2024-01-27T12:19:37;3.90;;;1.63;;
2866;SDS011;1441;48.886;8.728;2024-01-27T12:22:03;3.87;;;1.23;;
2866;SDS011;1441;48.886;8.728;2024-01-27T12:24:29;3.70;;;1.30;;
2866;SDS011;1441;48.886;8.728;2024-01-27T12:26:57;1.57;;;1.30;;
2866;SDS011;1441;48.886;8.728;2024-01-27T12:29:24;2.17;;;1.37;;
2866;SDS011;1441;48.886;8.728;2024-01-27T12:31:49;9.73;;;1.67;;
2866;SDS011;1441;48.886;8.728;2024-01-27T12:34:15;5.00;;;1.00;;
2866;SDS011;1441;48.886;8.728;2024-01-27T12:36:41;5.00;;;1.50;;
2866;SDS011;1441;48.886;8.728;2024-01-27T12:39:08;4.17;;;1.27;;
2866;SDS011;1441;48.886;8.728;2024-01-27T12:41:35;2.00;;;1.10;;
2866;SDS011;1441;48.886;8.728;2024-01-27T12:44:01;1.70;;;1.10;;
2866;SDS011;1441;48.886;8.728;2024-01-27T12:46:27;5.63;;;1.10;;
2866;SDS011;1441;48.886;8.728;2024-01-27T12:48:53;2.57;;;0.97;;
2866;SDS011;1441;48.886;8.728;2024-01-27T12:51:19;2.90;;;1.20;;
2866;SDS011;1441;48.886;8.728;2024-01-27T12:53:45;1.50;;;0.97;;
2866;SDS011;1441;48.886;8.728;2024-01-27T12:56:11;2.87;;;1.17;;
2866;SDS011;1441;48.886;8.728;2024-01-27T12:58:37;3.07;;;1.40;;
2866;SDS011;1441;48.886;8.728;2024-01-27T13:01:05;1.17;;;0.93;;
2866;SDS011;1441;48.886;8.728;2024-01-27T13:03:31;1.80;;;1.13;;
2866;SDS011;1441;48.886;8.728;2024-01-27T13:05:56;2.90;;;1.20;;
2866;SDS011;1441;48.886;8.728;2024-01-27T13:08:23;3.03;;;1.10;;
2866;SDS011;1441;48.886;8.728;2024-01-27T13:10:48;2.07;;;1.27;;
2866;SDS011;1441;48.886;8.728;2024-01-27T13:13:14;1.80;;;1.03;;
2866;SDS011;1441;48.886;8.728;2024-01-27T13:15:40;4.07;;;1.10;;
2866;SDS011;1441;48.886;8.728;2024-01-27T13:18:05;0.80;;;0.80;;
2866;SDS011;1441;48.886;8.728;2024-01-27T13:20:31;4.10;;;1.30;;
2866;SDS011;1441;48.886;8.728;2024-01-27T13:22:58;1.33;;;1.23;;
2866;SDS011;1441;48.886;8.728;2024-01-27T13:25:23;1.13;;;1.03;;
2866;SDS011;1441;48.886;8.728;2024-01-27T13:27:49;1.70;;;1.20;;
2866;SDS011;1441;48.886;8.728;2024-01-27T13:30:15;2.80;;;1.37;;
2866;SDS011;1441;48.886;8.728;2024-01-27T13:32:42;2.80;;;1.20;;
2866;SDS011;1441;48.886;8.728;2024-01-27T13:35:08;2.83;;;1.00;;
2866;SDS011;1441;48.886;8.728;2024-01-27T13:37:33;3.77;;;1.57;;
2866;SDS011;1441;48.886;8.728;2024-01-27T13:40:00;2.87;;;1.17;;
2866;SDS011;1441;48.886;8.728;2024-01-27T13:42:26;1.87;;;1.07;;
2866;SDS011;1441;48.886;8.728;2024-01-27T13:44:51;1.20;;;0.90;;
2866;SDS011;1441;48.886;8.728;2024-01-27T13:47:17;2.30;;;1.30;;
2866;SDS011;1441;48.886;8.728;2024-01-27T13:49:43;2.33;;;1.40;;
2866;SDS011;1441;48.886;8.728;2024-01-27T13:52:09;2.90;;;0.83;;
2866;SDS011;1441;48.886;8.728;2024-01-27T13:54:35;4.23;;;1.03;;
2866;SDS011;1441;48.886;8.728;2024-01-27T13:57:01;2.60;;;1.30;;
2866;SDS011;1441;48.886;8.728;2024-01-27T13:59:27;2.90;;;1.87;;
2866;SDS011;1441;48.886;8.728;2024-01-27T14:01:53;5.73;;;1.50;;
2866;SDS011;1441;48.886;8.728;2024-01-27T14:04:18;4.33;;;1.50;;
2866;SDS011;1441;48.886;8.728;2024-01-27T14:06:45;6.00;;;2.00;;
2866;SDS011;1441;48.886;8.728;2024-01-27T14:09:10;5.40;;;1.37;;
2866;SDS011;1441;48.886;8.728;2024-01-27T14:11:38;2.83;;;1.73;;
2866;SDS011;1441;48.886;8.728;2024-01-27T14:14:04;3.53;;;1.73;;
2866;SDS011;1441;48.886;8.728;2024-01-27T14:16:29;11.77;;;2.13;;
2866;SDS011;1441;48.886;8.728;2024-01-27T14:18:55;2.83;;;1.20;;
2866;SDS011;1441;48.886;8.728;2024-01-27T14:21:21;3.67;;;1.63;;
2866;SDS011;1441;48.886;8.728;2024-01-27T14:23:47;2.70;;;1.87;;
2866;SDS011;1441;48.886;8.728;2024-01-27T14:26:14;3.50;;;1.43;;
2866;SDS011;1441;48.886;8.728;2024-01-27T14:28:40;2.23;;;1.50;;
2866;SDS011;1441;48.886;8.728;2024-01-27T14:31:06;9.13;;;1.77;;
2866;SDS011;1441;48.886;8.728;2024-01-27T14:33:32;6.03;;;1.60;;
2866;SDS011;1441;48.886;8.728;2024-01-27T14:35:58;3.90;;;1.67;;
2866;SDS011;1441;48.886;8.728;2024-01-27T14:38:24;6.83;;;2.30;;
2866;SDS011;1441;48.886;8.728;2024-01-27T14:40:49;2.43;;;1.33;;
2866;SDS011;1441;48.886;8.728;2024-01-27T14:43:15;1.63;;;1.40;;
2866;SDS011;1441;48.886;8.728;2024-01-27T14:45:43;3.00;;;2.07;;
2866;SDS011;1441;48.886;8.728;2024-01-27T14:48:09;8.63;;;1.70;;
2866;SDS011;1441;48.886;8.728;2024-01-27T14:50:35;2.80;;;2.37;;
2866;SDS011;1441;48.886;8.728;2024-01-27T14:53:01;4.77;;;1.77;;
2866;SDS011;1441;48.886;8.728;2024-01-27T14:55:27;2.40;;;1.50;;
2866;SDS011;1441;48.886;8.728;2024-01-27T14:57:55;3.53;;;1.60;;
2866;SDS011;1441;48.886;8.728;2024-01-27T15:00:21;5.80;;;1.53;;
2866;SDS011;1441;48.886;8.728;2024-01-27T15:02:46;5.90;;;2.03;;
2866;SDS011;1441;48.886;8.728;2024-01-27T15:05:12;5.13;;;1.70;;
2866;SDS011;1441;48.886;8.728;2024-01-27T15:07:38;2.70;;;1.40;;
2866;SDS011;1441;48.886;8.728;2024-01-27T15:10:05;8.33;;;1.47;;